sensor_id;sensor_type;location;lat;lon;timestamp;P1;durP1;ratioP1;P2;durP2;ratioP2
6852;SDS011;3465;42.144;24.722;2023-07-13T00:00:40;17.73;;;8.68;;
6852;SDS011;3465;42.144;24.722;2023-07-13T00:03:06;19.40;;;9.20;;
6852;SDS011;3465;42.144;24.722;2023-07-13T00:05:32;15.95;;;9.23;;
6852;SDS011;3465;42.144;24.722;2023-07-13T00:07:57;40.20;;;10.82;;
6852;SDS011;3465;42.144;24.722;2023-07-13T00:10:22;14.93;;;9.00;;
6852;SDS011;3465;42.144;24.722;2023-07-13T00:12:48;12.45;;;8.57;;
6852;SDS011;3465;42.144;24.722;2023-07-13T00:15:18;12.60;;;8.48;;
6852;SDS011;3465;42.144;24.722;2023-07-13T00:17:48;17.63;;;9.23;;
6852;SDS011;3465;42.144;24.722;2023-07-13T00:20:14;15.95;;;8.10;;
6852;SDS011;3465;42.144;24.722;2023-07-13T00:22:39;11.75;;;8.23;;
6852;SDS011;3465;42.144;24.722;2023-07-13T00:25:05;12.57;;;8.93;;
6852;SDS011;3465;42.144;24.722;2023-07-13T00:27:31;13.00;;;8.68;;
6852;SDS011;3465;42.144;24.722;2023-07-13T00:29:57;12.27;;;8.13;;
6852;SDS011;3465;42.144;24.722;2023-07-13T00:32:25;12.43;;;8.15;;
6852;SDS011;3465;42.144;24.722;2023-07-13T00:34:51;19.90;;;8.73;;
6852;SDS011;3465;42.144;24.722;2023-07-13T00:37:17;11.90;;;7.90;;
6852;SDS011;3465;42.144;24.722;2023-07-13T00:39:42;12.75;;;7.95;;
6852;SDS011;3465;42.144;24.722;2023-07-13T00:42:08;14.18;;;8.35;;
6852;SDS011;3465;42.144;24.722;2023-07-13T00:44:33;12.70;;;8.10;;
6852;SDS011;3465;42.144;24.722;2023-07-13T00:46:59;14.77;;;8.25;;
6852;SDS011;3465;42.144;24.722;2023-07-13T00:49:25;17.85;;;8.45;;
6852;SDS011;3465;42.144;24.722;2023-07-13T00:51:56;15.45;;;8.50;;
6852;SDS011;3465;42.144;24.722;2023-07-13T00:54:24;19.42;;;8.43;;
6852;SDS011;3465;42.144;24.722;2023-07-13T00:56:55;14.30;;;8.55;;
6852;SDS011;3465;42.144;24.722;2023-07-13T00:59:25;17.50;;;8.43;;
6852;SDS011;3465;42.144;24.722;2023-07-13T01:01:51;16.08;;;8.13;;
6852;SDS011;3465;42.144;24.722;2023-07-13T01:04:17;15.90;;;8.27;;
6852;SDS011;3465;42.144;24.722;2023-07-13T01:06:44;15.98;;;8.13;;
6852;SDS011;3465;42.144;24.722;2023-07-13T01:09:12;14.25;;;7.63;;
6852;SDS011;3465;42.144;24.722;2023-07-13T01:11:41;10.88;;;7.82;;
6852;SDS011;3465;42.144;24.722;2023-07-13T01:14:07;17.55;;;8.25;;
6852;SDS011;3465;42.144;24.722;2023-07-13T01:16:34;11.75;;;7.80;;
6852;SDS011;3465;42.144;24.722;2023-07-13T01:19:01;13.30;;;7.72;;
6852;SDS011;3465;42.144;24.722;2023-07-13T01:21:33;12.13;;;7.85;;
6852;SDS011;3465;42.144;24.722;2023-07-13T01:23:59;15.77;;;7.38;;
6852;SDS011;3465;42.144;24.722;2023-07-13T01:26:25;15.75;;;7.78;;
6852;SDS011;3465;42.144;24.722;2023-07-13T01:28:51;11.50;;;7.28;;
6852;SDS011;3465;42.144;24.722;2023-07-13T01:31:16;10.15;;;7.03;;
6852;SDS011;3465;42.144;24.722;2023-07-13T01:33:42;13.02;;;7.43;;
6852;SDS011;3465;42.144;24.722;2023-07-13T01:36:08;15.55;;;7.07;;
6852;SDS011;3465;42.144;24.722;2023-07-13T01:38:35;15.15;;;6.72;;
6852;SDS011;3465;42.144;24.722;2023-07-13T01:41:01;12.25;;;6.80;;
6852;SDS011;3465;42.144;24.722;2023-07-13T01:43:28;10.80;;;7.05;;
6852;SDS011;3465;42.144;24.722;2023-07-13T01:45:53;10.45;;;6.93;;
6852;SDS011;3465;42.144;24.722;2023-07-13T01:48:19;14.95;;;7.68;;
6852;SDS011;3465;42.144;24.722;2023-07-13T01:50:45;10.77;;;7.10;;
6852;SDS011;3465;42.144;24.722;2023-07-13T01:53:10;9.32;;;7.00;;
6852;SDS011;3465;42.144;24.722;2023-07-13T01:55:36;18.20;;;7.88;;
6852;SDS011;3465;42.144;24.722;2023-07-13T01:58:02;12.95;;;7.30;;
6852;SDS011;3465;42.144;24.722;2023-07-13T02:00:28;11.32;;;7.28;;
6852;SDS011;3465;42.144;24.722;2023-07-13T02:02:54;14.98;;;6.97;;
6852;SDS011;3465;42.144;24.722;2023-07-13T02:05:19;11.55;;;7.50;;
6852;SDS011;3465;42.144;24.722;2023-07-13T02:07:45;13.30;;;7.50;;
6852;SDS011;3465;42.144;24.722;2023-07-13T02:10:11;11.23;;;7.40;;
6852;SDS011;3465;42.144;24.722;2023-07-13T02:12:37;11.07;;;7.05;;
6852;SDS011;3465;42.144;24.722;2023-07-13T02:15:04;8.80;;;6.53;;
6852;SDS011;3465;42.144;24.722;2023-07-13T02:17:30;11.50;;;7.63;;
6852;SDS011;3465;42.144;24.722;2023-07-13T02:19:57;12.35;;;7.53;;
6852;SDS011;3465;42.144;24.722;2023-07-13T02:22:22;12.52;;;7.35;;
6852;SDS011;3465;42.144;24.722;2023-07-13T02:24:48;13.25;;;6.95;;
6852;SDS011;3465;42.144;24.722;2023-07-13T02:27:14;13.18;;;7.15;;
6852;SDS011;3465;42.144;24.722;2023-07-13T02:29:39;11.00;;;7.13;;
6852;SDS011;3465;42.144;24.722;2023-07-13T02:32:05;10.13;;;7.53;;
6852;SDS011;3465;42.144;24.722;2023-07-13T02:34:31;12.73;;;7.28;;
6852;SDS011;3465;42.144;24.722;2023-07-13T02:36:56;15.68;;;8.00;;
6852;SDS011;3465;42.144;24.722;2023-07-13T02:39:21;10.27;;;7.35;;
6852;SDS011;3465;42.144;24.722;2023-07-13T02:41:47;11.25;;;7.80;;
6852;SDS011;3465;42.144;24.722;2023-07-13T02:44:13;9.23;;;6.55;;
6852;SDS011;3465;42.144;24.722;2023-07-13T02:46:39;21.73;;;7.30;;
6852;SDS011;3465;42.144;24.722;2023-07-13T02:49:05;16.83;;;8.15;;
6852;SDS011;3465;42.144;24.722;2023-07-13T02:51:31;13.32;;;7.30;;
6852;SDS011;3465;42.144;24.722;2023-07-13T02:53:59;13.90;;;7.00;;
6852;SDS011;3465;42.144;24.722;2023-07-13T02:56:28;15.20;;;7.70;;
6852;SDS011;3465;42.144;24.722;2023-07-13T02:58:54;10.93;;;7.18;;
6852;SDS011;3465;42.144;24.722;2023-07-13T03:01:20;9.00;;;6.68;;
6852;SDS011;3465;42.144;24.722;2023-07-13T03:03:46;11.45;;;7.90;;
6852;SDS011;3465;42.144;24.722;2023-07-13T03:06:13;18.77;;;7.80;;
6852;SDS011;3465;42.144;24.722;2023-07-13T03:08:40;14.60;;;7.32;;
6852;SDS011;3465;42.144;24.722;2023-07-13T03:11:07;17.20;;;7.88;;
6852;SDS011;3465;42.144;24.722;2023-07-13T03:13:34;14.52;;;7.82;;
6852;SDS011;3465;42.144;24.722;2023-07-13T03:15:59;13.23;;;7.63;;
6852;SDS011;3465;42.144;24.722;2023-07-13T03:18:26;19.40;;;7.28;;
6852;SDS011;3465;42.144;24.722;2023-07-13T03:20:52;17.00;;;7.38;;
6852;SDS011;3465;42.144;24.722;2023-07-13T03:23:18;21.23;;;7.95;;
6852;SDS011;3465;42.144;24.722;2023-07-13T03:25:45;21.58;;;8.60;;
6852;SDS011;3465;42.144;24.722;2023-07-13T03:28:11;16.40;;;7.95;;
6852;SDS011;3465;42.144;24.722;2023-07-13T03:30:37;15.98;;;7.82;;
6852;SDS011;3465;42.144;24.722;2023-07-13T03:33:02;26.40;;;8.75;;
6852;SDS011;3465;42.144;24.722;2023-07-13T03:35:28;16.63;;;7.55;;
6852;SDS011;3465;42.144;24.722;2023-07-13T03:37:53;20.77;;;7.65;;
6852;SDS011;3465;42.144;24.722;2023-07-13T03:40:18;22.10;;;7.32;;
6852;SDS011;3465;42.144;24.722;2023-07-13T03:42:44;12.32;;;7.53;;
6852;SDS011;3465;42.144;24.722;2023-07-13T03:45:09;15.70;;;7.47;;
6852;SDS011;3465;42.144;24.722;2023-07-13T03:47:35;13.00;;;6.93;;
6852;SDS011;3465;42.144;24.722;2023-07-13T03:50:00;16.02;;;7.60;;
6852;SDS011;3465;42.144;24.722;2023-07-13T03:52:26;16.70;;;7.72;;
6852;SDS011;3465;42.144;24.722;2023-07-13T03:54:51;17.58;;;7.65;;
6852;SDS011;3465;42.144;24.722;2023-07-13T03:57:17;12.63;;;7.05;;
6852;SDS011;3465;42.144;24.722;2023-07-13T03:59:43;17.85;;;8.02;;
6852;SDS011;3465;42.144;24.722;2023-07-13T04:02:09;21.38;;;7.45;;
6852;SDS011;3465;42.144;24.722;2023-07-13T04:04:35;18.98;;;7.90;;
6852;SDS011;3465;42.144;24.722;2023-07-13T04:07:00;19.52;;;7.78;;
6852;SDS011;3465;42.144;24.722;2023-07-13T04:09:25;22.23;;;7.95;;
6852;SDS011;3465;42.144;24.722;2023-07-13T04:11:51;18.63;;;7.30;;
6852;SDS011;3465;42.144;24.722;2023-07-13T04:14:16;13.35;;;7.40;;
6852;SDS011;3465;42.144;24.722;2023-07-13T04:16:42;16.23;;;7.55;;
6852;SDS011;3465;42.144;24.722;2023-07-13T04:19:08;14.63;;;7.60;;
6852;SDS011;3465;42.144;24.722;2023-07-13T04:21:35;15.95;;;8.43;;
6852;SDS011;3465;42.144;24.722;2023-07-13T04:24:02;13.75;;;7.70;;
6852;SDS011;3465;42.144;24.722;2023-07-13T04:26:28;26.48;;;8.25;;
6852;SDS011;3465;42.144;24.722;2023-07-13T04:28:53;14.02;;;8.13;;
6852;SDS011;3465;42.144;24.722;2023-07-13T04:31:19;16.02;;;7.57;;
6852;SDS011;3465;42.144;24.722;2023-07-13T04:33:45;19.27;;;7.97;;
6852;SDS011;3465;42.144;24.722;2023-07-13T04:36:10;13.88;;;8.35;;
6852;SDS011;3465;42.144;24.722;2023-07-13T04:38:36;15.32;;;7.93;;
6852;SDS011;3465;42.144;24.722;2023-07-13T04:41:03;15.15;;;9.07;;
6852;SDS011;3465;42.144;24.722;2023-07-13T04:43:30;17.67;;;9.52;;
6852;SDS011;3465;42.144;24.722;2023-07-13T04:45:57;13.07;;;9.50;;
6852;SDS011;3465;42.144;24.722;2023-07-13T04:48:27;15.55;;;8.52;;
6852;SDS011;3465;42.144;24.722;2023-07-13T04:50:56;15.48;;;9.57;;
6852;SDS011;3465;42.144;24.722;2023-07-13T04:53:23;19.02;;;9.93;;
6852;SDS011;3465;42.144;24.722;2023-07-13T04:55:48;16.50;;;9.57;;
6852;SDS011;3465;42.144;24.722;2023-07-13T04:58:14;21.00;;;9.85;;
6852;SDS011;3465;42.144;24.722;2023-07-13T05:00:39;18.00;;;9.15;;
6852;SDS011;3465;42.144;24.722;2023-07-13T05:03:04;13.85;;;9.38;;
6852;SDS011;3465;42.144;24.722;2023-07-13T05:05:30;22.08;;;9.77;;
6852;SDS011;3465;42.144;24.722;2023-07-13T05:07:55;15.38;;;9.90;;
6852;SDS011;3465;42.144;24.722;2023-07-13T05:10:21;17.13;;;10.32;;
6852;SDS011;3465;42.144;24.722;2023-07-13T05:12:47;17.65;;;10.15;;
6852;SDS011;3465;42.144;24.722;2023-07-13T05:15:13;13.90;;;9.70;;
6852;SDS011;3465;42.144;24.722;2023-07-13T05:17:38;17.67;;;10.05;;
6852;SDS011;3465;42.144;24.722;2023-07-13T05:20:04;14.23;;;10.00;;
6852;SDS011;3465;42.144;24.722;2023-07-13T05:22:31;18.02;;;9.93;;
6852;SDS011;3465;42.144;24.722;2023-07-13T05:24:56;15.10;;;9.07;;
6852;SDS011;3465;42.144;24.722;2023-07-13T05:27:22;21.70;;;10.43;;
6852;SDS011;3465;42.144;24.722;2023-07-13T05:29:48;14.60;;;9.38;;
6852;SDS011;3465;42.144;24.722;2023-07-13T05:32:13;19.52;;;9.65;;
6852;SDS011;3465;42.144;24.722;2023-07-13T05:34:39;16.55;;;10.30;;
6852;SDS011;3465;42.144;24.722;2023-07-13T05:37:04;16.88;;;9.77;;
6852;SDS011;3465;42.144;24.722;2023-07-13T05:39:30;24.33;;;9.70;;
6852;SDS011;3465;42.144;24.722;2023-07-13T05:41:55;22.80;;;10.18;;
6852;SDS011;3465;42.144;24.722;2023-07-13T05:44:21;23.42;;;10.57;;
6852;SDS011;3465;42.144;24.722;2023-07-13T05:46:46;16.17;;;9.57;;
6852;SDS011;3465;42.144;24.722;2023-07-13T05:49:11;14.70;;;9.43;;
6852;SDS011;3465;42.144;24.722;2023-07-13T05:51:37;14.18;;;9.02;;
6852;SDS011;3465;42.144;24.722;2023-07-13T05:54:02;17.05;;;9.20;;
6852;SDS011;3465;42.144;24.722;2023-07-13T05:56:28;20.60;;;9.45;;
6852;SDS011;3465;42.144;24.722;2023-07-13T05:58:53;16.52;;;9.10;;
6852;SDS011;3465;42.144;24.722;2023-07-13T06:01:19;16.30;;;9.07;;
6852;SDS011;3465;42.144;24.722;2023-07-13T06:03:45;15.65;;;8.70;;
6852;SDS011;3465;42.144;24.722;2023-07-13T06:06:11;16.80;;;8.73;;
6852;SDS011;3465;42.144;24.722;2023-07-13T06:08:37;15.82;;;8.48;;
6852;SDS011;3465;42.144;24.722;2023-07-13T06:11:23;19.20;;;9.20;;
6852;SDS011;3465;42.144;24.722;2023-07-13T06:13:49;20.90;;;7.97;;
6852;SDS011;3465;42.144;24.722;2023-07-13T06:16:16;16.02;;;8.55;;
6852;SDS011;3465;42.144;24.722;2023-07-13T06:18:41;16.35;;;8.40;;
6852;SDS011;3465;42.144;24.722;2023-07-13T06:23:33;14.90;;;7.93;;
6852;SDS011;3465;42.144;24.722;2023-07-13T06:25:59;15.23;;;8.45;;
6852;SDS011;3465;42.144;24.722;2023-07-13T06:28:24;18.35;;;7.97;;
6852;SDS011;3465;42.144;24.722;2023-07-13T06:30:49;15.18;;;9.00;;
6852;SDS011;3465;42.144;24.722;2023-07-13T06:33:15;11.18;;;7.90;;
6852;SDS011;3465;42.144;24.722;2023-07-13T06:35:40;10.32;;;7.28;;
6852;SDS011;3465;42.144;24.722;2023-07-13T06:38:06;13.82;;;8.27;;
6852;SDS011;3465;42.144;24.722;2023-07-13T06:40:31;11.25;;;7.95;;
6852;SDS011;3465;42.144;24.722;2023-07-13T06:42:57;16.92;;;7.72;;
6852;SDS011;3465;42.144;24.722;2023-07-13T06:45:22;13.20;;;7.28;;
6852;SDS011;3465;42.144;24.722;2023-07-13T06:47:48;15.48;;;8.40;;
6852;SDS011;3465;42.144;24.722;2023-07-13T06:50:14;16.63;;;8.88;;
6852;SDS011;3465;42.144;24.722;2023-07-13T06:52:40;12.63;;;8.07;;
6852;SDS011;3465;42.144;24.722;2023-07-13T06:55:05;30.08;;;9.48;;
6852;SDS011;3465;42.144;24.722;2023-07-13T06:57:31;13.55;;;7.78;;
6852;SDS011;3465;42.144;24.722;2023-07-13T06:59:56;14.75;;;8.55;;
6852;SDS011;3465;42.144;24.722;2023-07-13T07:02:22;20.17;;;8.10;;
6852;SDS011;3465;42.144;24.722;2023-07-13T07:04:47;13.05;;;8.02;;
6852;SDS011;3465;42.144;24.722;2023-07-13T07:07:13;17.20;;;8.88;;
6852;SDS011;3465;42.144;24.722;2023-07-13T07:09:38;12.85;;;8.30;;
6852;SDS011;3465;42.144;24.722;2023-07-13T07:12:04;9.52;;;7.30;;
6852;SDS011;3465;42.144;24.722;2023-07-13T07:14:30;14.45;;;7.97;;
6852;SDS011;3465;42.144;24.722;2023-07-13T07:16:55;19.02;;;7.72;;
6852;SDS011;3465;42.144;24.722;2023-07-13T07:19:21;11.30;;;6.85;;
6852;SDS011;3465;42.144;24.722;2023-07-13T07:21:46;10.93;;;7.43;;
6852;SDS011;3465;42.144;24.722;2023-07-13T07:24:12;15.98;;;7.35;;
6852;SDS011;3465;42.144;24.722;2023-07-13T07:26:37;14.52;;;8.23;;
6852;SDS011;3465;42.144;24.722;2023-07-13T07:29:02;11.52;;;7.40;;
6852;SDS011;3465;42.144;24.722;2023-07-13T07:31:28;16.40;;;7.30;;
6852;SDS011;3465;42.144;24.722;2023-07-13T07:33:54;13.25;;;7.18;;
6852;SDS011;3465;42.144;24.722;2023-07-13T07:36:19;13.02;;;7.55;;
6852;SDS011;3465;42.144;24.722;2023-07-13T07:38:44;17.27;;;7.75;;
6852;SDS011;3465;42.144;24.722;2023-07-13T07:41:10;12.38;;;7.75;;
6852;SDS011;3465;42.144;24.722;2023-07-13T07:43:37;9.73;;;6.65;;
6852;SDS011;3465;42.144;24.722;2023-07-13T07:46:03;14.25;;;6.85;;
6852;SDS011;3465;42.144;24.722;2023-07-13T07:48:28;24.92;;;7.20;;
6852;SDS011;3465;42.144;24.722;2023-07-13T07:50:54;10.02;;;6.85;;
6852;SDS011;3465;42.144;24.722;2023-07-13T07:53:19;13.85;;;6.18;;
6852;SDS011;3465;42.144;24.722;2023-07-13T07:55:45;18.02;;;7.45;;
6852;SDS011;3465;42.144;24.722;2023-07-13T07:58:10;10.25;;;6.25;;
6852;SDS011;3465;42.144;24.722;2023-07-13T08:00:36;9.13;;;6.30;;
6852;SDS011;3465;42.144;24.722;2023-07-13T08:03:02;9.63;;;6.75;;
6852;SDS011;3465;42.144;24.722;2023-07-13T08:05:27;7.88;;;6.53;;
6852;SDS011;3465;42.144;24.722;2023-07-13T08:07:53;14.68;;;6.63;;
6852;SDS011;3465;42.144;24.722;2023-07-13T08:10:18;9.75;;;6.20;;
6852;SDS011;3465;42.144;24.722;2023-07-13T08:12:44;13.23;;;6.20;;
6852;SDS011;3465;42.144;24.722;2023-07-13T08:15:12;10.07;;;6.40;;
6852;SDS011;3465;42.144;24.722;2023-07-13T08:17:39;12.50;;;6.82;;
6852;SDS011;3465;42.144;24.722;2023-07-13T08:20:04;11.68;;;6.40;;
6852;SDS011;3465;42.144;24.722;2023-07-13T08:22:30;9.82;;;6.53;;
6852;SDS011;3465;42.144;24.722;2023-07-13T08:24:56;12.50;;;6.65;;
6852;SDS011;3465;42.144;24.722;2023-07-13T08:27:22;8.20;;;5.90;;
6852;SDS011;3465;42.144;24.722;2023-07-13T08:29:49;19.80;;;7.30;;
6852;SDS011;3465;42.144;24.722;2023-07-13T08:32:14;14.90;;;6.70;;
6852;SDS011;3465;42.144;24.722;2023-07-13T08:34:40;9.63;;;6.20;;
6852;SDS011;3465;42.144;24.722;2023-07-13T08:37:06;12.07;;;6.43;;
6852;SDS011;3465;42.144;24.722;2023-07-13T08:39:32;8.98;;;6.13;;
6852;SDS011;3465;42.144;24.722;2023-07-13T08:42:03;10.80;;;6.68;;
6852;SDS011;3465;42.144;24.722;2023-07-13T08:44:39;8.45;;;6.05;;
6852;SDS011;3465;42.144;24.722;2023-07-13T08:47:14;11.23;;;5.25;;
6852;SDS011;3465;42.144;24.722;2023-07-13T08:49:40;18.67;;;6.38;;
6852;SDS011;3465;42.144;24.722;2023-07-13T08:52:17;20.20;;;5.60;;
6852;SDS011;3465;42.144;24.722;2023-07-13T08:55:02;21.00;;;5.93;;
6852;SDS011;3465;42.144;24.722;2023-07-13T08:57:34;12.02;;;6.20;;
6852;SDS011;3465;42.144;24.722;2023-07-13T09:00:01;11.35;;;5.80;;
6852;SDS011;3465;42.144;24.722;2023-07-13T09:02:28;16.17;;;5.82;;
6852;SDS011;3465;42.144;24.722;2023-07-13T09:05:08;9.90;;;5.53;;
6852;SDS011;3465;42.144;24.722;2023-07-13T09:07:42;9.52;;;5.03;;
6852;SDS011;3465;42.144;24.722;2023-07-13T09:15:36;7.80;;;5.70;;
6852;SDS011;3465;42.144;24.722;2023-07-13T09:23:38;10.00;;;5.03;;
6852;SDS011;3465;42.144;24.722;2023-07-13T09:26:05;13.88;;;4.60;;
6852;SDS011;3465;42.144;24.722;2023-07-13T09:28:44;7.32;;;5.00;;
6852;SDS011;3465;42.144;24.722;2023-07-13T09:31:16;8.93;;;4.97;;
6852;SDS011;3465;42.144;24.722;2023-07-13T09:33:47;6.68;;;4.43;;
6852;SDS011;3465;42.144;24.722;2023-07-13T09:38:44;13.73;;;5.90;;
6852;SDS011;3465;42.144;24.722;2023-07-13T09:46:35;8.60;;;4.78;;
6852;SDS011;3465;42.144;24.722;2023-07-13T09:49:01;9.35;;;4.95;;
6852;SDS011;3465;42.144;24.722;2023-07-13T09:51:27;13.50;;;5.30;;
6852;SDS011;3465;42.144;24.722;2023-07-13T09:53:53;10.43;;;4.90;;
6852;SDS011;3465;42.144;24.722;2023-07-13T09:56:23;5.40;;;4.35;;
6852;SDS011;3465;42.144;24.722;2023-07-13T09:58:51;11.20;;;4.35;;
6852;SDS011;3465;42.144;24.722;2023-07-13T10:01:30;7.95;;;4.10;;
6852;SDS011;3465;42.144;24.722;2023-07-13T10:03:58;6.18;;;4.40;;
6852;SDS011;3465;42.144;24.722;2023-07-13T10:06:23;12.10;;;4.40;;
6852;SDS011;3465;42.144;24.722;2023-07-13T10:08:51;9.43;;;4.28;;
6852;SDS011;3465;42.144;24.722;2023-07-13T10:11:25;7.72;;;4.40;;
6852;SDS011;3465;42.144;24.722;2023-07-13T10:13:59;5.43;;;4.63;;
6852;SDS011;3465;42.144;24.722;2023-07-13T10:16:31;9.55;;;4.43;;
6852;SDS011;3465;42.144;24.722;2023-07-13T10:18:58;8.07;;;4.25;;
6852;SDS011;3465;42.144;24.722;2023-07-13T10:21:30;9.73;;;4.32;;
6852;SDS011;3465;42.144;24.722;2023-07-13T10:24:34;9.10;;;4.45;;
6852;SDS011;3465;42.144;24.722;2023-07-13T10:29:29;7.03;;;3.80;;
6852;SDS011;3465;42.144;24.722;2023-07-13T10:32:01;6.82;;;4.07;;
6852;SDS011;3465;42.144;24.722;2023-07-13T10:34:26;6.28;;;4.20;;
6852;SDS011;3465;42.144;24.722;2023-07-13T10:36:52;8.40;;;4.40;;
6852;SDS011;3465;42.144;24.722;2023-07-13T10:39:19;7.65;;;4.00;;
6852;SDS011;3465;42.144;24.722;2023-07-13T10:41:55;7.85;;;4.15;;
6852;SDS011;3465;42.144;24.722;2023-07-13T10:44:26;5.53;;;4.28;;
6852;SDS011;3465;42.144;24.722;2023-07-13T10:46:59;8.80;;;4.20;;
6852;SDS011;3465;42.144;24.722;2023-07-13T10:49:31;7.90;;;4.22;;
6852;SDS011;3465;42.144;24.722;2023-07-13T10:51:58;6.75;;;4.13;;
6852;SDS011;3465;42.144;24.722;2023-07-13T10:54:27;5.88;;;3.65;;
6852;SDS011;3465;42.144;24.722;2023-07-13T10:59:45;6.93;;;4.38;;
6852;SDS011;3465;42.144;24.722;2023-07-13T11:02:33;8.43;;;4.05;;
6852;SDS011;3465;42.144;24.722;2023-07-13T11:04:58;11.60;;;4.20;;
6852;SDS011;3465;42.144;24.722;2023-07-13T11:08:04;9.43;;;4.07;;
6852;SDS011;3465;42.144;24.722;2023-07-13T11:10:54;6.78;;;3.60;;
6852;SDS011;3465;42.144;24.722;2023-07-13T11:13:37;9.65;;;3.90;;
6852;SDS011;3465;42.144;24.722;2023-07-13T11:16:13;6.35;;;3.78;;
6852;SDS011;3465;42.144;24.722;2023-07-13T11:18:39;7.40;;;3.90;;
6852;SDS011;3465;42.144;24.722;2023-07-13T11:21:17;7.00;;;3.97;;
6852;SDS011;3465;42.144;24.722;2023-07-13T11:23:44;8.38;;;4.13;;
6852;SDS011;3465;42.144;24.722;2023-07-13T11:31:55;7.90;;;3.80;;
6852;SDS011;3465;42.144;24.722;2023-07-13T11:34:31;7.50;;;4.13;;
6852;SDS011;3465;42.144;24.722;2023-07-13T11:37:01;10.85;;;3.58;;
6852;SDS011;3465;42.144;24.722;2023-07-13T11:39:36;7.85;;;3.67;;
6852;SDS011;3465;42.144;24.722;2023-07-13T11:42:08;8.15;;;3.90;;
6852;SDS011;3465;42.144;24.722;2023-07-13T11:44:41;10.55;;;3.75;;
6852;SDS011;3465;42.144;24.722;2023-07-13T11:47:09;5.43;;;3.78;;
6852;SDS011;3465;42.144;24.722;2023-07-13T11:49:44;8.00;;;3.83;;
6852;SDS011;3465;42.144;24.722;2023-07-13T11:52:14;11.55;;;3.85;;
6852;SDS011;3465;42.144;24.722;2023-07-13T11:54:52;6.68;;;3.88;;
6852;SDS011;3465;42.144;24.722;2023-07-13T11:59:59;8.00;;;3.50;;
6852;SDS011;3465;42.144;24.722;2023-07-13T12:05:02;8.90;;;4.07;;
6852;SDS011;3465;42.144;24.722;2023-07-13T12:07:30;7.80;;;3.97;;
6852;SDS011;3465;42.144;24.722;2023-07-13T12:10:01;8.00;;;3.60;;
6852;SDS011;3465;42.144;24.722;2023-07-13T12:13:01;8.43;;;3.95;;
6852;SDS011;3465;42.144;24.722;2023-07-13T12:15:44;8.00;;;3.90;;
6852;SDS011;3465;42.144;24.722;2023-07-13T12:18:15;8.80;;;3.95;;
6852;SDS011;3465;42.144;24.722;2023-07-13T12:20:43;10.48;;;3.88;;
6852;SDS011;3465;42.144;24.722;2023-07-13T12:23:24;8.30;;;3.30;;
6852;SDS011;3465;42.144;24.722;2023-07-13T12:25:55;10.63;;;3.83;;
6852;SDS011;3465;42.144;24.722;2023-07-13T12:28:30;7.05;;;3.42;;
6852;SDS011;3465;42.144;24.722;2023-07-13T12:31:03;7.75;;;3.55;;
6852;SDS011;3465;42.144;24.722;2023-07-13T12:33:32;14.13;;;3.78;;
6852;SDS011;3465;42.144;24.722;2023-07-13T12:36:02;9.30;;;4.10;;
6852;SDS011;3465;42.144;24.722;2023-07-13T12:38:31;10.25;;;4.35;;
6852;SDS011;3465;42.144;24.722;2023-07-13T12:40:57;10.27;;;4.65;;
6852;SDS011;3465;42.144;24.722;2023-07-13T12:43:23;13.93;;;4.05;;
6852;SDS011;3465;42.144;24.722;2023-07-13T12:46:15;14.55;;;4.43;;
6852;SDS011;3465;42.144;24.722;2023-07-13T12:48:40;11.63;;;3.92;;
6852;SDS011;3465;42.144;24.722;2023-07-13T12:51:11;8.73;;;3.55;;
6852;SDS011;3465;42.144;24.722;2023-07-13T12:53:40;10.23;;;4.10;;
6852;SDS011;3465;42.144;24.722;2023-07-13T12:56:08;9.90;;;4.00;;
6852;SDS011;3465;42.144;24.722;2023-07-13T12:58:43;12.10;;;3.88;;
6852;SDS011;3465;42.144;24.722;2023-07-13T13:01:12;8.95;;;4.05;;
6852;SDS011;3465;42.144;24.722;2023-07-13T13:03:39;12.85;;;3.97;;
6852;SDS011;3465;42.144;24.722;2023-07-13T13:08:45;12.18;;;4.00;;
6852;SDS011;3465;42.144;24.722;2023-07-13T13:11:21;14.23;;;4.30;;
6852;SDS011;3465;42.144;24.722;2023-07-13T13:13:48;8.38;;;3.80;;
6852;SDS011;3465;42.144;24.722;2023-07-13T13:18:52;14.05;;;4.40;;
6852;SDS011;3465;42.144;24.722;2023-07-13T13:21:19;17.05;;;4.25;;
6852;SDS011;3465;42.144;24.722;2023-07-13T13:23:45;12.90;;;4.50;;
6852;SDS011;3465;42.144;24.722;2023-07-13T13:26:12;14.38;;;4.35;;
6852;SDS011;3465;42.144;24.722;2023-07-13T13:28:40;22.38;;;4.50;;
6852;SDS011;3465;42.144;24.722;2023-07-13T13:31:07;16.20;;;4.80;;
6852;SDS011;3465;42.144;24.722;2023-07-13T13:33:37;14.35;;;4.18;;
6852;SDS011;3465;42.144;24.722;2023-07-13T13:36:09;13.98;;;4.25;;
6852;SDS011;3465;42.144;24.722;2023-07-13T13:38:38;10.45;;;4.07;;
6852;SDS011;3465;42.144;24.722;2023-07-13T13:41:04;10.23;;;3.92;;
6852;SDS011;3465;42.144;24.722;2023-07-13T13:43:30;11.70;;;4.60;;
6852;SDS011;3465;42.144;24.722;2023-07-13T13:45:57;14.55;;;4.50;;
6852;SDS011;3465;42.144;24.722;2023-07-13T13:48:31;13.63;;;4.13;;
6852;SDS011;3465;42.144;24.722;2023-07-13T13:51:00;16.63;;;4.20;;
6852;SDS011;3465;42.144;24.722;2023-07-13T13:53:29;12.70;;;4.60;;
6852;SDS011;3465;42.144;24.722;2023-07-13T13:55:54;10.95;;;4.32;;
6852;SDS011;3465;42.144;24.722;2023-07-13T13:58:20;9.80;;;4.45;;
6852;SDS011;3465;42.144;24.722;2023-07-13T14:00:45;13.70;;;4.40;;
6852;SDS011;3465;42.144;24.722;2023-07-13T14:03:15;13.40;;;4.43;;
6852;SDS011;3465;42.144;24.722;2023-07-13T14:05:46;9.73;;;4.55;;
6852;SDS011;3465;42.144;24.722;2023-07-13T14:08:14;8.93;;;4.32;;
6852;SDS011;3465;42.144;24.722;2023-07-13T14:10:40;12.20;;;4.40;;
6852;SDS011;3465;42.144;24.722;2023-07-13T14:13:15;12.63;;;5.35;;
6852;SDS011;3465;42.144;24.722;2023-07-13T14:15:44;10.30;;;4.57;;
6852;SDS011;3465;42.144;24.722;2023-07-13T14:18:09;11.32;;;4.70;;
6852;SDS011;3465;42.144;24.722;2023-07-13T14:20:35;11.98;;;4.15;;
6852;SDS011;3465;42.144;24.722;2023-07-13T14:23:00;15.68;;;4.85;;
6852;SDS011;3465;42.144;24.722;2023-07-13T14:25:26;16.63;;;4.40;;
6852;SDS011;3465;42.144;24.722;2023-07-13T14:27:53;9.73;;;4.85;;
6852;SDS011;3465;42.144;24.722;2023-07-13T14:30:24;10.60;;;4.53;;
6852;SDS011;3465;42.144;24.722;2023-07-13T14:32:50;11.45;;;4.50;;
6852;SDS011;3465;42.144;24.722;2023-07-13T14:35:20;13.13;;;5.10;;
6852;SDS011;3465;42.144;24.722;2023-07-13T14:37:48;13.02;;;4.82;;
6852;SDS011;3465;42.144;24.722;2023-07-13T14:40:18;11.13;;;4.40;;
6852;SDS011;3465;42.144;24.722;2023-07-13T14:42:48;12.68;;;4.63;;
6852;SDS011;3465;42.144;24.722;2023-07-13T14:45:18;16.65;;;4.50;;
6852;SDS011;3465;42.144;24.722;2023-07-13T14:47:45;14.57;;;5.05;;
6852;SDS011;3465;42.144;24.722;2023-07-13T14:50:24;11.70;;;4.97;;
6852;SDS011;3465;42.144;24.722;2023-07-13T14:52:54;10.90;;;4.90;;
6852;SDS011;3465;42.144;24.722;2023-07-13T14:55:20;14.50;;;4.80;;
6852;SDS011;3465;42.144;24.722;2023-07-13T14:57:46;11.02;;;4.68;;
6852;SDS011;3465;42.144;24.722;2023-07-13T15:00:12;15.13;;;4.50;;
6852;SDS011;3465;42.144;24.722;2023-07-13T15:02:52;14.23;;;4.50;;
6852;SDS011;3465;42.144;24.722;2023-07-13T15:05:21;9.07;;;4.75;;
6852;SDS011;3465;42.144;24.722;2023-07-13T15:07:49;12.63;;;4.53;;
6852;SDS011;3465;42.144;24.722;2023-07-13T15:10:17;8.60;;;4.30;;
6852;SDS011;3465;42.144;24.722;2023-07-13T15:12:45;12.95;;;4.60;;
6852;SDS011;3465;42.144;24.722;2023-07-13T15:15:11;15.63;;;4.60;;
6852;SDS011;3465;42.144;24.722;2023-07-13T15:17:38;16.33;;;5.10;;
6852;SDS011;3465;42.144;24.722;2023-07-13T15:20:16;14.77;;;4.85;;
6852;SDS011;3465;42.144;24.722;2023-07-13T15:22:46;12.65;;;4.72;;
6852;SDS011;3465;42.144;24.722;2023-07-13T15:25:17;11.82;;;4.85;;
6852;SDS011;3465;42.144;24.722;2023-07-13T15:27:45;10.75;;;4.72;;
6852;SDS011;3465;42.144;24.722;2023-07-13T15:30:11;14.80;;;4.20;;
6852;SDS011;3465;42.144;24.722;2023-07-13T15:32:39;18.38;;;4.72;;
6852;SDS011;3465;42.144;24.722;2023-07-13T15:35:09;14.00;;;4.30;;
6852;SDS011;3465;42.144;24.722;2023-07-13T15:37:42;15.55;;;4.68;;